createdAt,value
2017-07-09T00:02:10.628Z,23.90
2017-07-09T00:04:36.978Z,23.90
2017-07-09T00:07:03.367Z,23.80
2017-07-09T00:09:30.480Z,23.70
2017-07-09T00:11:56.826Z,23.70
2017-07-09T00:14:23.221Z,23.70
2017-07-09T00:16:49.697Z,23.70
2017-07-09T00:19:16.221Z,23.70
2017-07-09T00:21:42.571Z,23.60
2017-07-09T00:24:08.969Z,23.60
2017-07-09T00:26:35.338Z,23.60
2017-07-09T00:29:01.780Z,23.60
2017-07-09T00:31:28.910Z,23.50
2017-07-09T00:33:55.309Z,23.50
2017-07-09T00:36:21.654Z,23.50
2017-07-09T00:38:47.994Z,23.50
2017-07-09T00:41:14.419Z,23.50
2017-07-09T00:43:40.765Z,23.40
2017-07-09T00:46:07.156Z,23.40
2017-07-09T00:48:33.550Z,23.40
2017-07-09T00:50:59.905Z,23.40
2017-07-09T00:53:26.252Z,23.40
2017-07-09T00:55:52.635Z,23.30
2017-07-09T00:58:19.046Z,23.30
2017-07-09T01:00:45.399Z,23.30
2017-07-09T01:03:11.758Z,23.20
2017-07-09T01:05:38.882Z,23.20
2017-07-09T01:08:05.275Z,23.10
2017-07-09T01:10:31.720Z,23.10
2017-07-09T01:12:58.079Z,23.10
2017-07-09T01:15:31.639Z,23.10
2017-07-09T01:17:58.190Z,23.10
2017-07-09T01:20:24.544Z,23.00
2017-07-09T01:22:50.947Z,23.00
2017-07-09T01:25:17.311Z,23.00
2017-07-09T01:27:45.856Z,23.00
2017-07-09T01:30:12.294Z,22.90
2017-07-09T01:32:38.643Z,22.90
2017-07-09T01:35:05.019Z,22.90
2017-07-09T01:37:32.166Z,22.80
2017-07-09T01:39:59.319Z,22.80
2017-07-09T01:42:26.593Z,22.80
2017-07-09T01:44:52.970Z,22.80
2017-07-09T01:47:19.391Z,22.70
2017-07-09T01:49:45.767Z,22.70
2017-07-09T01:52:12.866Z,22.60
2017-07-09T01:54:39.275Z,22.60
2017-07-09T01:57:05.603Z,22.60
2017-07-09T01:59:31.945Z,22.60
2017-07-09T02:01:58.319Z,22.60
2017-07-09T02:04:24.665Z,22.60
2017-07-09T02:06:50.968Z,22.50
2017-07-09T02:09:17.301Z,22.50
2017-07-09T02:11:43.648Z,22.50
2017-07-09T02:14:09.968Z,22.50
2017-07-09T02:16:36.441Z,22.50
2017-07-09T02:19:03.484Z,22.50
2017-07-09T02:21:30.579Z,22.50
2017-07-09T02:23:56.887Z,22.40
2017-07-09T02:26:23.186Z,22.50
2017-07-09T02:28:49.515Z,22.40
2017-07-09T02:31:15.817Z,22.40
2017-07-09T02:33:42.212Z,22.40
2017-07-09T02:36:08.576Z,22.40
2017-07-09T02:38:34.924Z,22.50
2017-07-09T02:41:01.293Z,22.40
2017-07-09T02:43:28.340Z,22.40
2017-07-09T02:45:55.387Z,22.40
2017-07-09T02:48:22.480Z,22.40
2017-07-09T02:50:48.792Z,22.40
2017-07-09T02:53:15.093Z,22.40
2017-07-09T02:55:42.207Z,22.40
2017-07-09T02:58:08.563Z,22.40
2017-07-09T03:00:34.903Z,22.50
2017-07-09T03:03:02.047Z,22.50
2017-07-09T03:05:29.175Z,22.40
2017-07-09T03:07:55.493Z,22.40
2017-07-09T03:10:21.808Z,22.50
2017-07-09T03:12:48.185Z,22.50
2017-07-09T03:15:14.484Z,22.50
2017-07-09T03:17:40.793Z,22.50
2017-07-09T03:20:07.161Z,22.50
2017-07-09T03:22:33.458Z,22.50
2017-07-09T03:24:59.760Z,22.50
2017-07-09T03:27:26.099Z,22.50
2017-07-09T03:29:52.396Z,22.60
2017-07-09T03:32:18.705Z,22.60
2017-07-09T03:34:45.039Z,22.60
2017-07-09T03:37:11.375Z,22.50
2017-07-09T03:39:37.718Z,22.60
2017-07-09T03:42:04.126Z,22.60
2017-07-09T03:44:30.493Z,22.60
2017-07-09T03:46:56.783Z,22.60
2017-07-09T03:49:23.089Z,22.60
2017-07-09T03:51:49.448Z,22.60
2017-07-09T03:54:15.773Z,22.60
2017-07-09T03:56:42.088Z,22.60
2017-07-09T03:59:08.433Z,22.60
2017-07-09T04:01:34.731Z,22.60
2017-07-09T04:04:01.823Z,22.70
2017-07-09T04:06:28.120Z,22.60
2017-07-09T04:08:54.423Z,22.70
2017-07-09T04:11:20.776Z,22.70
2017-07-09T04:13:47.119Z,22.70
2017-07-09T04:16:13.416Z,22.70
2017-07-09T04:18:40.467Z,22.70
2017-07-09T04:21:07.616Z,22.70
2017-07-09T04:23:34.024Z,22.70
2017-07-09T04:26:00.324Z,22.70
2017-07-09T04:28:26.719Z,22.70
2017-07-09T04:30:53.782Z,22.70
2017-07-09T04:33:20.132Z,22.70
2017-07-09T04:35:46.456Z,22.60
2017-07-09T04:38:12.801Z,22.60
2017-07-09T04:40:39.160Z,22.50
2017-07-09T04:43:05.468Z,22.50
2017-07-09T04:45:31.766Z,22.50
2017-07-09T04:47:58.887Z,22.50
2017-07-09T04:50:25.191Z,22.50
2017-07-09T04:52:51.497Z,22.50
2017-07-09T04:55:17.848Z,22.40
2017-07-09T04:57:44.157Z,22.40
2017-07-09T05:00:10.505Z,22.40
2017-07-09T05:02:36.901Z,22.30
2017-07-09T05:05:03.949Z,22.30
2017-07-09T05:07:31.017Z,22.20
2017-07-09T05:09:57.507Z,22.20
2017-07-09T05:12:30.934Z,22.20
2017-07-09T05:14:57.297Z,22.20
2017-07-09T05:17:23.719Z,22.20
2017-07-09T05:19:50.079Z,22.20
2017-07-09T05:22:16.584Z,22.20
2017-07-09T05:24:42.882Z,22.20
2017-07-09T05:27:09.322Z,22.20
2017-07-09T05:29:36.613Z,22.20
2017-07-09T05:32:02.920Z,22.20
2017-07-09T05:34:29.405Z,22.20
2017-07-09T05:36:55.740Z,22.10
2017-07-09T05:39:22.096Z,22.10
2017-07-09T05:41:49.207Z,22.10
2017-07-09T05:44:15.520Z,22.10
2017-07-09T05:46:41.820Z,22.00
2017-07-09T05:49:09.166Z,22.00
2017-07-09T05:51:35.466Z,22.00
2017-07-09T05:54:01.770Z,22.00
2017-07-09T05:56:28.185Z,22.00
2017-07-09T05:58:54.488Z,22.00
2017-07-09T06:01:21.575Z,22.00
2017-07-09T06:03:47.992Z,22.00
2017-07-09T06:06:14.308Z,22.00
2017-07-09T06:08:41.432Z,22.10
2017-07-09T06:11:07.742Z,22.00
2017-07-09T06:13:34.068Z,22.10
2017-07-09T06:16:00.425Z,22.10
2017-07-09T06:18:26.718Z,22.10
2017-07-09T06:20:53.039Z,22.20
2017-07-09T06:23:19.414Z,22.20
2017-07-09T06:25:45.720Z,22.20
2017-07-09T06:28:12.026Z,22.30
2017-07-09T06:30:38.402Z,22.30
2017-07-09T06:33:04.726Z,22.40
2017-07-09T06:35:31.056Z,22.40
2017-07-09T06:37:57.404Z,22.40
2017-07-09T06:40:23.717Z,22.50
2017-07-09T06:42:50.028Z,22.50
2017-07-09T06:45:16.381Z,22.50
2017-07-09T06:47:42.677Z,22.50
2017-07-09T06:50:09.037Z,22.50
2017-07-09T06:52:35.346Z,22.60
2017-07-09T06:55:01.645Z,22.60
2017-07-09T06:57:28.746Z,22.70
2017-07-09T06:59:55.048Z,22.60
2017-07-09T07:02:21.361Z,22.70
2017-07-09T07:04:47.754Z,22.70
2017-07-09T07:07:14.088Z,22.80
2017-07-09T07:09:40.389Z,22.80
2017-07-09T07:12:06.771Z,22.80
2017-07-09T07:14:33.080Z,22.90
2017-07-09T07:16:59.390Z,22.90
2017-07-09T07:19:25.732Z,22.90
2017-07-09T07:21:52.075Z,22.90
2017-07-09T07:24:18.384Z,23.00
2017-07-09T07:26:44.689Z,23.00
2017-07-09T07:29:11.033Z,23.00
2017-07-09T07:31:37.331Z,23.10
2017-07-09T07:34:03.685Z,23.10
2017-07-09T07:36:30.041Z,23.10
2017-07-09T07:38:56.352Z,23.20
2017-07-09T07:41:22.756Z,23.20
2017-07-09T07:43:49.814Z,23.20
2017-07-09T07:46:16.879Z,23.20
2017-07-09T07:48:43.221Z,23.30
2017-07-09T07:51:09.533Z,23.30
2017-07-09T07:53:35.847Z,23.30
2017-07-09T07:56:02.931Z,23.30
2017-07-09T07:58:29.239Z,23.30
2017-07-09T08:00:56.355Z,23.40
2017-07-09T08:03:22.679Z,23.40
2017-07-09T08:05:48.980Z,23.40
2017-07-09T08:08:15.337Z,23.40
2017-07-09T08:10:41.650Z,23.50
2017-07-09T08:13:08.020Z,23.50
2017-07-09T08:15:34.336Z,23.50
2017-07-09T08:18:00.649Z,23.60
2017-07-09T08:20:27.016Z,23.60
2017-07-09T08:22:53.319Z,23.70
2017-07-09T08:25:19.624Z,23.70
2017-07-09T08:27:45.990Z,23.70
2017-07-09T08:30:12.295Z,23.80
2017-07-09T08:32:38.605Z,23.80
2017-07-09T08:35:04.998Z,23.90
2017-07-09T08:37:31.369Z,23.90
2017-07-09T08:39:57.674Z,24.00
2017-07-09T08:42:24.772Z,24.10
2017-07-09T08:44:51.075Z,24.10
2017-07-09T08:47:17.378Z,24.20
2017-07-09T08:49:44.477Z,24.20
2017-07-09T08:52:10.775Z,24.20
2017-07-09T08:54:37.822Z,24.30
2017-07-09T08:57:04.939Z,24.30
2017-07-09T08:59:31.252Z,24.30
2017-07-09T09:01:57.585Z,24.30
2017-07-09T09:04:24.475Z,24.30
2017-07-09T09:06:50.865Z,24.30
2017-07-09T09:09:17.228Z,24.30
2017-07-09T09:11:44.281Z,24.30
2017-07-09T09:14:11.698Z,24.30
2017-07-09T09:16:38.032Z,24.30
2017-07-09T09:19:04.409Z,24.30
2017-07-09T09:21:30.806Z,24.30
2017-07-09T09:23:57.129Z,24.30
2017-07-09T09:26:23.436Z,24.30
2017-07-09T09:28:49.794Z,24.30
2017-07-09T09:31:16.313Z,24.30
2017-07-09T09:33:42.597Z,24.40
2017-07-09T09:36:08.948Z,24.40
2017-07-09T09:41:08.778Z,24.40
2017-07-09T09:43:35.760Z,24.40
2017-07-09T09:46:02.473Z,24.40
2017-07-09T09:48:29.656Z,24.60
2017-07-09T09:50:55.972Z,24.60
2017-07-09T09:53:24.233Z,24.70
2017-07-09T09:55:50.592Z,24.80
2017-07-09T09:58:16.900Z,24.90
2017-07-09T10:00:43.199Z,25.00
2017-07-09T10:03:09.556Z,25.10
2017-07-09T10:05:37.414Z,25.20
2017-07-09T10:08:03.792Z,25.30
2017-07-09T10:10:30.357Z,25.50
2017-07-09T10:12:56.700Z,25.60
2017-07-09T10:15:23.464Z,25.70
2017-07-09T10:17:49.770Z,25.80
2017-07-09T10:20:16.124Z,25.90
2017-07-09T10:22:42.442Z,25.90
2017-07-09T10:25:08.748Z,26.00
2017-07-09T10:27:35.104Z,26.00
2017-07-09T10:30:01.468Z,26.00
2017-07-09T10:32:27.773Z,26.00
2017-07-09T10:34:54.122Z,26.10
2017-07-09T10:37:20.480Z,26.10
2017-07-09T10:39:46.789Z,26.10
2017-07-09T10:42:13.096Z,26.20
2017-07-09T10:44:39.445Z,26.30
2017-07-09T10:47:05.762Z,26.30
2017-07-09T10:49:32.065Z,26.30
2017-07-09T10:51:59.179Z,26.50
2017-07-09T10:54:25.491Z,26.50
2017-07-09T10:56:51.821Z,26.50
2017-07-09T10:59:18.194Z,26.60
2017-07-09T11:01:44.510Z,26.60
2017-07-09T11:04:10.826Z,26.60
2017-07-09T11:06:37.175Z,26.70
2017-07-09T11:09:03.555Z,26.70
2017-07-09T11:11:29.952Z,26.80
2017-07-09T11:13:56.267Z,26.90
2017-07-09T11:16:22.633Z,26.90
2017-07-09T11:18:49.685Z,27.00
2017-07-09T11:21:16.003Z,27.00
2017-07-09T11:23:43.101Z,27.10
2017-07-09T11:26:09.409Z,27.10
2017-07-09T11:28:35.716Z,27.10
2017-07-09T11:31:02.813Z,27.30
2017-07-09T11:33:29.113Z,27.20
2017-07-09T11:35:55.469Z,27.30
2017-07-09T11:38:21.783Z,27.40
2017-07-09T11:40:48.088Z,27.40
2017-07-09T11:43:14.451Z,27.50
2017-07-09T11:45:40.753Z,27.50
2017-07-09T11:48:07.821Z,27.40
2017-07-09T11:50:34.180Z,27.40
2017-07-09T11:53:00.491Z,27.40
2017-07-09T11:55:26.788Z,27.40
2017-07-09T11:57:53.138Z,27.40
2017-07-09T12:00:19.449Z,27.40
2017-07-09T12:02:45.803Z,27.40
2017-07-09T12:05:12.147Z,27.50
2017-07-09T12:07:38.499Z,27.50
2017-07-09T12:10:04.890Z,27.60
2017-07-09T12:12:31.940Z,27.60
2017-07-09T12:14:58.986Z,27.70
2017-07-09T12:17:26.076Z,27.70
2017-07-09T12:19:52.385Z,27.70
2017-07-09T12:22:18.750Z,27.70
2017-07-09T12:24:45.116Z,27.70
2017-07-09T12:27:11.419Z,27.80
2017-07-09T12:29:37.784Z,27.80
2017-07-09T12:32:04.091Z,27.80
2017-07-09T12:34:30.427Z,27.80
2017-07-09T12:36:56.777Z,27.80
2017-07-09T12:39:23.088Z,27.80
2017-07-09T12:41:49.460Z,27.80
2017-07-09T12:44:16.504Z,27.90
2017-07-09T12:46:43.577Z,27.90
2017-07-09T12:49:09.936Z,27.80
2017-07-09T12:51:36.239Z,27.90
2017-07-09T12:54:02.568Z,27.80
2017-07-09T12:56:28.921Z,27.80
2017-07-09T12:58:55.227Z,27.70
2017-07-09T13:01:21.602Z,27.70
2017-07-09T13:03:47.933Z,27.70
2017-07-09T13:06:14.323Z,27.60
2017-07-09T13:08:40.673Z,27.50
2017-07-09T13:11:07.036Z,27.40
2017-07-09T13:13:33.438Z,27.20
2017-07-09T13:15:59.744Z,27.00
2017-07-09T13:18:26.064Z,26.70
2017-07-09T13:20:53.129Z,26.20
2017-07-09T13:23:19.448Z,26.20
2017-07-09T13:25:46.574Z,25.80
2017-07-09T13:28:12.874Z,25.70
2017-07-09T13:30:39.176Z,25.60
2017-07-09T13:33:05.559Z,25.40
2017-07-09T13:35:31.869Z,25.30
2017-07-09T13:37:58.173Z,25.10
2017-07-09T13:40:24.533Z,25.00
2017-07-09T13:42:50.898Z,24.90
2017-07-09T13:45:17.214Z,24.70
2017-07-09T13:47:43.585Z,24.70
2017-07-09T13:50:10.644Z,24.50
2017-07-09T13:52:36.950Z,24.50
2017-07-09T13:55:03.294Z,24.50
2017-07-09T13:57:30.628Z,24.40
2017-07-09T13:59:56.934Z,24.40
2017-07-09T14:02:23.232Z,24.40
2017-07-09T14:04:49.576Z,24.30
2017-07-09T14:07:15.875Z,24.30
2017-07-09T14:09:42.980Z,24.40
2017-07-09T14:12:09.331Z,24.30
2017-07-09T14:14:35.625Z,24.40
2017-07-09T14:17:02.217Z,24.40
2017-07-09T14:19:29.276Z,24.50
2017-07-09T14:21:55.609Z,24.50
2017-07-09T14:24:21.973Z,24.50
2017-07-09T14:26:48.684Z,24.60
2017-07-09T14:29:14.988Z,24.60
2017-07-09T14:31:41.355Z,24.60
2017-07-09T14:34:07.667Z,24.70
2017-07-09T14:36:34.253Z,24.70
2017-07-09T14:39:00.843Z,24.90
2017-07-09T14:41:28.070Z,25.00
2017-07-09T14:43:54.795Z,25.00
2017-07-09T14:46:21.162Z,25.10
2017-07-09T14:48:48.213Z,25.10
2017-07-09T14:51:14.546Z,25.10
2017-07-09T14:53:41.004Z,25.20
2017-07-09T14:56:07.311Z,25.20
2017-07-09T14:58:33.627Z,25.30
2017-07-09T15:01:00.729Z,25.40
2017-07-09T15:03:27.045Z,25.40
2017-07-09T15:05:53.345Z,25.40
2017-07-09T15:08:20.435Z,25.50
2017-07-09T15:10:46.796Z,25.50
2017-07-09T15:13:13.151Z,25.50
2017-07-09T15:15:40.240Z,25.60
2017-07-09T15:18:07.384Z,25.60
2017-07-09T15:20:33.744Z,25.50
2017-07-09T15:23:00.042Z,25.60
2017-07-09T15:25:26.343Z,25.60
2017-07-09T15:27:53.429Z,25.60
2017-07-09T15:30:19.742Z,25.60
2017-07-09T15:32:46.058Z,25.70
2017-07-09T15:35:13.169Z,25.70
2017-07-09T15:37:39.492Z,25.70
2017-07-09T15:40:05.836Z,25.70
2017-07-09T15:42:32.470Z,25.80
2017-07-09T15:44:58.809Z,25.80
2017-07-09T15:47:25.280Z,25.80
2017-07-09T15:49:51.619Z,25.80
2017-07-09T15:52:18.053Z,25.80
2017-07-09T15:54:44.713Z,25.80
2017-07-09T15:57:11.091Z,25.80
2017-07-09T15:59:37.456Z,25.80
2017-07-09T16:02:03.984Z,25.80
2017-07-09T16:04:30.302Z,25.80
2017-07-09T16:06:57.396Z,25.80
2017-07-09T16:09:23.915Z,25.80
2017-07-09T16:11:50.296Z,25.80
2017-07-09T16:14:16.761Z,25.80
2017-07-09T16:16:43.152Z,25.80
2017-07-09T16:19:09.519Z,25.80
2017-07-09T16:21:37.001Z,25.80
2017-07-09T16:24:03.393Z,25.70
2017-07-09T16:26:30.045Z,25.80
2017-07-09T16:28:56.447Z,25.80
2017-07-09T16:31:22.876Z,25.70
2017-07-09T16:33:49.243Z,25.70
2017-07-09T16:36:16.605Z,25.70
2017-07-09T16:38:42.975Z,25.70
2017-07-09T16:41:09.360Z,25.70
2017-07-09T16:43:36.638Z,25.70
2017-07-09T16:46:03.007Z,25.70
2017-07-09T16:48:29.446Z,25.70
2017-07-09T16:50:55.867Z,25.70
2017-07-09T16:53:22.500Z,25.70
2017-07-09T16:55:49.013Z,25.70
2017-07-09T16:58:15.372Z,25.70
2017-07-09T17:00:41.771Z,25.70
2017-07-09T17:03:08.267Z,25.70
2017-07-09T17:05:34.656Z,25.80
2017-07-09T17:08:01.087Z,25.80
2017-07-09T17:10:28.435Z,25.80
2017-07-09T17:12:54.800Z,25.80
2017-07-09T17:15:21.261Z,25.80
2017-07-09T17:17:48.439Z,25.80
2017-07-09T17:20:14.760Z,25.80
2017-07-09T17:22:41.099Z,25.80
2017-07-09T17:25:07.403Z,25.80
2017-07-09T17:27:34.514Z,25.90
2017-07-09T17:30:00.920Z,25.80
2017-07-09T17:32:27.259Z,25.90
2017-07-09T17:34:53.571Z,25.90
2017-07-09T17:37:19.946Z,25.90
2017-07-09T17:39:46.317Z,25.90
2017-07-09T17:42:12.677Z,25.80
2017-07-09T17:44:39.035Z,25.80
2017-07-09T17:47:05.404Z,25.80
2017-07-09T17:49:32.533Z,25.80
2017-07-09T17:51:58.912Z,25.80
2017-07-09T17:54:25.240Z,25.80
2017-07-09T17:56:51.558Z,25.80
2017-07-09T17:59:17.947Z,25.80
2017-07-09T18:01:44.341Z,25.80
2017-07-09T18:04:10.655Z,25.80
2017-07-09T18:06:37.051Z,25.80
2017-07-09T18:09:03.538Z,25.70
2017-07-09T18:11:30.009Z,25.70
2017-07-09T18:13:56.374Z,25.70
2017-07-09T18:16:23.474Z,25.70
2017-07-09T18:18:49.822Z,25.60
2017-07-09T18:21:16.327Z,25.60
2017-07-09T18:23:42.655Z,25.60
2017-07-09T18:26:08.943Z,25.60
2017-07-09T18:28:36.153Z,25.50
2017-07-09T18:31:02.549Z,25.50
2017-07-09T18:33:28.876Z,25.50
2017-07-09T18:35:55.249Z,25.50
2017-07-09T18:38:21.555Z,25.40
2017-07-09T18:40:47.872Z,25.40
2017-07-09T18:43:14.225Z,25.30
2017-07-09T18:45:40.763Z,25.30
2017-07-09T18:48:07.165Z,25.30
2017-07-09T18:50:33.484Z,25.30
2017-07-09T18:53:00.594Z,25.20
2017-07-09T18:55:26.956Z,25.10
2017-07-09T18:57:54.021Z,25.10
2017-07-09T19:00:20.350Z,25.10
2017-07-09T19:02:47.664Z,25.00
2017-07-09T19:05:14.115Z,25.00
2017-07-09T19:07:40.439Z,25.00
2017-07-09T19:10:06.805Z,25.00
2017-07-09T19:12:33.190Z,25.00
2017-07-09T19:14:59.482Z,25.00
2017-07-09T19:17:25.821Z,25.00
2017-07-09T19:19:52.249Z,24.90
2017-07-09T19:22:18.545Z,24.90
2017-07-09T19:24:45.586Z,24.90
2017-07-09T19:27:12.751Z,24.90
2017-07-09T19:29:39.795Z,24.90
2017-07-09T19:32:06.855Z,24.80
2017-07-09T19:34:33.213Z,24.80
2017-07-09T19:36:59.552Z,24.90
2017-07-09T19:39:25.862Z,24.80
2017-07-09T19:41:52.222Z,24.80
2017-07-09T19:44:18.543Z,24.80
2017-07-09T19:46:44.907Z,24.80
2017-07-09T19:49:11.292Z,24.70
2017-07-09T19:51:37.601Z,24.70
2017-07-09T19:54:03.921Z,24.70
2017-07-09T19:56:31.069Z,24.70
2017-07-09T19:58:58.109Z,24.70
2017-07-09T20:01:25.160Z,24.60
2017-07-09T20:03:52.288Z,24.60
2017-07-09T20:06:19.376Z,24.60
2017-07-09T20:08:45.683Z,24.60
2017-07-09T20:14:14.363Z,24.50
2017-07-09T20:16:40.720Z,24.50
2017-07-09T20:19:07.815Z,24.50
2017-07-09T20:21:34.328Z,24.50
2017-07-09T20:24:00.651Z,24.50
2017-07-09T20:26:27.007Z,24.50
2017-07-09T20:28:53.372Z,24.50
2017-07-09T20:31:19.735Z,24.50
2017-07-09T20:33:46.797Z,24.40
2017-07-09T20:36:13.192Z,24.40
2017-07-09T20:38:39.515Z,24.40
2017-07-09T20:41:05.844Z,24.30
2017-07-09T20:43:32.466Z,24.30
2017-07-09T20:45:58.953Z,24.30
2017-07-09T20:48:26.025Z,24.20
2017-07-09T20:50:52.455Z,24.20
2017-07-09T20:53:18.767Z,24.20
2017-07-09T20:55:45.812Z,24.10
2017-07-09T20:58:12.933Z,24.00
2017-07-09T21:00:39.233Z,24.00
2017-07-09T21:03:05.541Z,24.00
2017-07-09T21:05:31.950Z,24.00
2017-07-09T21:07:59.042Z,23.90
2017-07-09T21:10:25.398Z,23.90
2017-07-09T21:12:51.801Z,23.80
2017-07-09T21:15:18.166Z,23.80
2017-07-09T21:17:44.573Z,23.70
2017-07-09T21:20:11.016Z,23.60
2017-07-09T21:22:37.323Z,23.50
2017-07-09T21:25:03.837Z,23.40
2017-07-09T21:27:30.281Z,23.30
2017-07-09T21:29:56.642Z,23.20
2017-07-09T21:32:23.122Z,23.20
2017-07-09T21:34:50.181Z,23.10
2017-07-09T21:37:16.613Z,23.10
2017-07-09T21:39:42.961Z,23.10
2017-07-09T21:42:09.268Z,23.00
2017-07-09T21:44:36.390Z,22.90
2017-07-09T21:47:02.699Z,22.90
2017-07-09T21:49:29.014Z,22.90
2017-07-09T21:51:55.365Z,22.80
2017-07-09T21:54:21.755Z,22.80
2017-07-09T21:56:48.070Z,22.80
2017-07-09T21:59:15.171Z,22.70
2017-07-09T22:01:41.529Z,22.70
2017-07-09T22:04:07.856Z,22.70
2017-07-09T22:06:34.213Z,22.70
2017-07-09T22:09:01.278Z,22.60
2017-07-09T22:11:27.605Z,22.60
2017-07-09T22:13:53.980Z,22.60
2017-07-09T22:16:20.295Z,22.60
2017-07-09T22:18:46.613Z,22.60
2017-07-09T22:21:13.062Z,22.50
2017-07-09T22:23:39.405Z,22.50
2017-07-09T22:26:05.722Z,22.50
2017-07-09T22:28:32.129Z,22.50
2017-07-09T22:30:58.459Z,22.50
2017-07-09T22:33:24.763Z,22.50
2017-07-09T22:35:51.902Z,22.40
2017-07-09T22:38:18.228Z,22.40
2017-07-09T22:40:44.598Z,22.40
2017-07-09T22:43:11.009Z,22.40
2017-07-09T22:45:38.057Z,22.30
2017-07-09T22:48:04.360Z,22.30
2017-07-09T22:50:30.726Z,22.30
2017-07-09T22:52:57.788Z,22.20
2017-07-09T22:55:24.183Z,22.20
2017-07-09T22:57:50.497Z,22.20
2017-07-09T23:00:16.850Z,22.20
2017-07-09T23:02:43.240Z,22.20
2017-07-09T23:05:09.567Z,22.20
2017-07-09T23:07:35.868Z,22.10
2017-07-09T23:10:02.303Z,22.10
2017-07-09T23:12:28.689Z,22.10
2017-07-09T23:14:55.081Z,22.00
2017-07-09T23:17:21.408Z,22.00
2017-07-09T23:19:47.772Z,22.00
2017-07-09T23:22:14.066Z,22.00
2017-07-09T23:24:40.436Z,22.00
2017-07-09T23:27:06.740Z,21.90
2017-07-09T23:29:33.044Z,21.90
2017-07-09T23:31:59.714Z,21.90
2017-07-09T23:34:26.077Z,21.90
2017-07-09T23:36:52.421Z,21.90
2017-07-09T23:39:18.772Z,21.80
2017-07-09T23:41:45.851Z,21.80
2017-07-09T23:44:12.181Z,21.80
2017-07-09T23:46:38.585Z,21.80
2017-07-09T23:49:05.634Z,21.70
2017-07-09T23:51:32.748Z,21.70
2017-07-09T23:53:59.064Z,21.70
2017-07-09T23:56:25.416Z,21.70
2017-07-09T23:58:51.931Z,21.70
